sensor_id;sensor_type;location;lat;lon;timestamp;P1;durP1;ratioP1;P2;durP2;ratioP2
20609;SDS011;10463;52.378;9.688;2024-02-14T00:01:11;2.83;;;2.00;;
20609;SDS011;10463;52.378;9.688;2024-02-14T00:03:57;3.20;;;2.03;;
20609;SDS011;10463;52.378;9.688;2024-02-14T00:06:41;2.47;;;1.73;;
20609;SDS011;10463;52.378;9.688;2024-02-14T00:09:27;2.20;;;1.57;;
20609;SDS011;10463;52.378;9.688;2024-02-14T00:12:13;2.77;;;1.60;;
20609;SDS011;10463;52.378;9.688;2024-02-14T00:14:57;2.93;;;1.87;;
20609;SDS011;10463;52.378;9.688;2024-02-14T00:17:42;2.60;;;1.70;;
20609;SDS011;10463;52.378;9.688;2024-02-14T00:20:28;2.20;;;1.40;;
20609;SDS011;10463;52.378;9.688;2024-02-14T00:23:13;2.47;;;2.00;;
20609;SDS011;10463;52.378;9.688;2024-02-14T00:25:58;2.83;;;1.60;;
20609;SDS011;10463;52.378;9.688;2024-02-14T00:28:42;2.60;;;1.60;;
20609;SDS011;10463;52.378;9.688;2024-02-14T00:31:27;2.90;;;1.80;;
20609;SDS011;10463;52.378;9.688;2024-02-14T00:34:12;2.13;;;1.50;;
20609;SDS011;10463;52.378;9.688;2024-02-14T00:36:58;2.43;;;1.70;;
20609;SDS011;10463;52.378;9.688;2024-02-14T00:39:42;2.60;;;1.60;;
20609;SDS011;10463;52.378;9.688;2024-02-14T00:42:27;2.87;;;2.10;;
20609;SDS011;10463;52.378;9.688;2024-02-14T00:45:12;2.00;;;1.60;;
20609;SDS011;10463;52.378;9.688;2024-02-14T00:47:56;2.37;;;1.70;;
20609;SDS011;10463;52.378;9.688;2024-02-14T00:50:41;2.40;;;1.57;;
20609;SDS011;10463;52.378;9.688;2024-02-14T00:53:27;3.20;;;2.10;;
20609;SDS011;10463;52.378;9.688;2024-02-14T00:56:11;2.30;;;1.50;;
20609;SDS011;10463;52.378;9.688;2024-02-14T00:58:56;1.90;;;1.27;;
20609;SDS011;10463;52.378;9.688;2024-02-14T01:01:40;2.30;;;1.50;;
20609;SDS011;10463;52.378;9.688;2024-02-14T01:04:25;2.67;;;1.60;;
20609;SDS011;10463;52.378;9.688;2024-02-14T01:07:10;2.20;;;1.47;;
20609;SDS011;10463;52.378;9.688;2024-02-14T01:09:55;2.40;;;1.90;;
20609;SDS011;10463;52.378;9.688;2024-02-14T01:12:40;2.13;;;1.30;;
20609;SDS011;10463;52.378;9.688;2024-02-14T01:15:24;2.03;;;1.50;;
20609;SDS011;10463;52.378;9.688;2024-02-14T01:18:09;2.50;;;1.90;;
20609;SDS011;10463;52.378;9.688;2024-02-14T01:20:54;1.73;;;1.10;;
20609;SDS011;10463;52.378;9.688;2024-02-14T01:23:39;2.70;;;1.80;;
20609;SDS011;10463;52.378;9.688;2024-02-14T01:26:25;2.07;;;1.43;;
20609;SDS011;10463;52.378;9.688;2024-02-14T01:29:09;2.20;;;1.50;;
20609;SDS011;10463;52.378;9.688;2024-02-14T01:31:54;2.07;;;1.40;;
20609;SDS011;10463;52.378;9.688;2024-02-14T01:34:39;2.33;;;1.20;;
20609;SDS011;10463;52.378;9.688;2024-02-14T01:37:26;2.00;;;1.20;;
20609;SDS011;10463;52.378;9.688;2024-02-14T01:40:13;2.37;;;1.40;;
20609;SDS011;10463;52.378;9.688;2024-02-14T01:42:59;2.00;;;1.47;;
20609;SDS011;10463;52.378;9.688;2024-02-14T01:45:44;2.40;;;1.43;;
20609;SDS011;10463;52.378;9.688;2024-02-14T01:48:29;1.80;;;1.27;;
20609;SDS011;10463;52.378;9.688;2024-02-14T01:51:13;3.10;;;1.50;;
20609;SDS011;10463;52.378;9.688;2024-02-14T01:54:01;1.93;;;1.10;;
20609;SDS011;10463;52.378;9.688;2024-02-14T01:56:47;1.70;;;1.10;;
20609;SDS011;10463;52.378;9.688;2024-02-14T01:59:34;2.30;;;1.27;;
20609;SDS011;10463;52.378;9.688;2024-02-14T02:02:19;2.30;;;1.20;;
20609;SDS011;10463;52.378;9.688;2024-02-14T02:05:04;1.90;;;1.10;;
20609;SDS011;10463;52.378;9.688;2024-02-14T02:07:49;2.30;;;1.20;;
20609;SDS011;10463;52.378;9.688;2024-02-14T02:10:34;1.97;;;1.10;;
20609;SDS011;10463;52.378;9.688;2024-02-14T02:13:19;2.00;;;1.20;;
20609;SDS011;10463;52.378;9.688;2024-02-14T02:16:06;2.07;;;1.70;;
20609;SDS011;10463;52.378;9.688;2024-02-14T02:18:51;1.90;;;1.30;;
20609;SDS011;10463;52.378;9.688;2024-02-14T02:21:36;1.73;;;1.27;;
20609;SDS011;10463;52.378;9.688;2024-02-14T02:24:22;1.73;;;1.00;;
20609;SDS011;10463;52.378;9.688;2024-02-14T02:27:07;1.93;;;1.23;;
20609;SDS011;10463;52.378;9.688;2024-02-14T02:29:51;1.93;;;1.40;;
20609;SDS011;10463;52.378;9.688;2024-02-14T02:32:36;2.00;;;1.27;;
20609;SDS011;10463;52.378;9.688;2024-02-14T02:35:21;1.90;;;1.23;;
20609;SDS011;10463;52.378;9.688;2024-02-14T02:38:05;1.60;;;0.90;;
20609;SDS011;10463;52.378;9.688;2024-02-14T02:40:51;1.80;;;1.10;;
20609;SDS011;10463;52.378;9.688;2024-02-14T02:43:36;2.17;;;1.47;;
20609;SDS011;10463;52.378;9.688;2024-02-14T02:46:20;1.57;;;1.00;;
20609;SDS011;10463;52.378;9.688;2024-02-14T02:49:07;1.60;;;1.03;;
20609;SDS011;10463;52.378;9.688;2024-02-14T02:51:52;2.53;;;1.37;;
20609;SDS011;10463;52.378;9.688;2024-02-14T02:54:36;1.70;;;1.00;;
20609;SDS011;10463;52.378;9.688;2024-02-14T02:57:23;2.10;;;1.30;;
20609;SDS011;10463;52.378;9.688;2024-02-14T03:00:11;1.53;;;1.00;;
20609;SDS011;10463;52.378;9.688;2024-02-14T03:02:57;2.00;;;1.20;;
20609;SDS011;10463;52.378;9.688;2024-02-14T03:05:41;1.90;;;1.30;;
20609;SDS011;10463;52.378;9.688;2024-02-14T03:08:28;1.70;;;1.00;;
20609;SDS011;10463;52.378;9.688;2024-02-14T03:11:15;1.97;;;1.10;;
20609;SDS011;10463;52.378;9.688;2024-02-14T03:14:01;1.97;;;0.93;;
20609;SDS011;10463;52.378;9.688;2024-02-14T03:16:46;1.83;;;1.20;;
20609;SDS011;10463;52.378;9.688;2024-02-14T03:19:30;1.60;;;1.00;;
20609;SDS011;10463;52.378;9.688;2024-02-14T03:22:17;1.83;;;1.07;;
20609;SDS011;10463;52.378;9.688;2024-02-14T03:25:03;2.20;;;1.47;;
20609;SDS011;10463;52.378;9.688;2024-02-14T03:27:48;1.50;;;1.00;;
20609;SDS011;10463;52.378;9.688;2024-02-14T03:30:38;1.73;;;0.93;;
20609;SDS011;10463;52.378;9.688;2024-02-14T03:33:25;1.90;;;0.93;;
20609;SDS011;10463;52.378;9.688;2024-02-14T03:36:10;1.83;;;1.00;;
20609;SDS011;10463;52.378;9.688;2024-02-14T03:38:54;1.90;;;1.03;;
20609;SDS011;10463;52.378;9.688;2024-02-14T03:41:39;1.90;;;1.10;;
20609;SDS011;10463;52.378;9.688;2024-02-14T03:44:23;1.70;;;1.00;;
20609;SDS011;10463;52.378;9.688;2024-02-14T03:47:09;1.60;;;0.80;;
20609;SDS011;10463;52.378;9.688;2024-02-14T03:49:54;1.30;;;0.80;;
20609;SDS011;10463;52.378;9.688;2024-02-14T03:52:39;1.77;;;0.80;;
20609;SDS011;10463;52.378;9.688;2024-02-14T03:55:26;1.60;;;0.90;;
20609;SDS011;10463;52.378;9.688;2024-02-14T03:58:11;1.50;;;0.90;;
20609;SDS011;10463;52.378;9.688;2024-02-14T04:00:58;1.83;;;1.00;;
20609;SDS011;10463;52.378;9.688;2024-02-14T04:03:44;1.50;;;0.90;;
20609;SDS011;10463;52.378;9.688;2024-02-14T04:06:31;2.03;;;0.90;;
20609;SDS011;10463;52.378;9.688;2024-02-14T04:09:15;1.57;;;1.00;;
20609;SDS011;10463;52.378;9.688;2024-02-14T04:12:00;1.80;;;1.07;;
20609;SDS011;10463;52.378;9.688;2024-02-14T04:14:44;1.40;;;0.80;;
20609;SDS011;10463;52.378;9.688;2024-02-14T04:17:29;1.70;;;1.07;;
20609;SDS011;10463;52.378;9.688;2024-02-14T04:20:15;1.67;;;0.93;;
20609;SDS011;10463;52.378;9.688;2024-02-14T04:23:00;1.60;;;1.00;;
20609;SDS011;10463;52.378;9.688;2024-02-14T04:25:44;1.93;;;1.13;;
20609;SDS011;10463;52.378;9.688;2024-02-14T04:28:28;1.40;;;0.80;;
20609;SDS011;10463;52.378;9.688;2024-02-14T04:31:13;1.50;;;0.97;;
20609;SDS011;10463;52.378;9.688;2024-02-14T04:33:57;2.73;;;1.10;;
20609;SDS011;10463;52.378;9.688;2024-02-14T04:36:43;2.27;;;1.10;;
20609;SDS011;10463;52.378;9.688;2024-02-14T04:39:28;1.90;;;1.10;;
20609;SDS011;10463;52.378;9.688;2024-02-14T04:42:12;1.67;;;0.97;;
20609;SDS011;10463;52.378;9.688;2024-02-14T04:44:57;1.87;;;1.17;;
20609;SDS011;10463;52.378;9.688;2024-02-14T04:47:41;1.87;;;0.93;;
20609;SDS011;10463;52.378;9.688;2024-02-14T04:50:27;1.70;;;1.17;;
20609;SDS011;10463;52.378;9.688;2024-02-14T04:53:12;1.70;;;0.97;;
20609;SDS011;10463;52.378;9.688;2024-02-14T04:55:57;1.97;;;1.20;;
20609;SDS011;10463;52.378;9.688;2024-02-14T04:58:42;1.67;;;0.90;;
20609;SDS011;10463;52.378;9.688;2024-02-14T05:01:27;1.60;;;1.10;;
20609;SDS011;10463;52.378;9.688;2024-02-14T05:04:11;1.43;;;0.93;;
20609;SDS011;10463;52.378;9.688;2024-02-14T05:06:57;1.40;;;0.80;;
20609;SDS011;10463;52.378;9.688;2024-02-14T05:09:43;1.30;;;0.80;;
20609;SDS011;10463;52.378;9.688;2024-02-14T05:12:28;1.80;;;1.20;;
20609;SDS011;10463;52.378;9.688;2024-02-14T05:15:12;1.50;;;0.80;;
20609;SDS011;10463;52.378;9.688;2024-02-14T05:17:59;1.80;;;1.10;;
20609;SDS011;10463;52.378;9.688;2024-02-14T05:20:43;1.87;;;1.10;;
20609;SDS011;10463;52.378;9.688;2024-02-14T05:23:28;1.70;;;1.00;;
20609;SDS011;10463;52.378;9.688;2024-02-14T05:26:14;1.30;;;0.80;;
20609;SDS011;10463;52.378;9.688;2024-02-14T05:28:58;1.40;;;0.80;;
20609;SDS011;10463;52.378;9.688;2024-02-14T05:31:44;1.40;;;0.73;;
20609;SDS011;10463;52.378;9.688;2024-02-14T05:34:29;1.40;;;0.80;;
20609;SDS011;10463;52.378;9.688;2024-02-14T05:37:14;1.60;;;0.97;;
20609;SDS011;10463;52.378;9.688;2024-02-14T05:39:59;1.90;;;0.90;;
20609;SDS011;10463;52.378;9.688;2024-02-14T05:42:45;1.63;;;0.90;;
20609;SDS011;10463;52.378;9.688;2024-02-14T05:45:30;1.90;;;1.10;;
20609;SDS011;10463;52.378;9.688;2024-02-14T05:48:15;1.30;;;0.70;;
20609;SDS011;10463;52.378;9.688;2024-02-14T05:51:00;1.47;;;0.90;;
20609;SDS011;10463;52.378;9.688;2024-02-14T05:53:44;1.70;;;0.90;;
20609;SDS011;10463;52.378;9.688;2024-02-14T05:56:29;1.60;;;0.93;;
20609;SDS011;10463;52.378;9.688;2024-02-14T05:59:14;2.00;;;1.20;;
20609;SDS011;10463;52.378;9.688;2024-02-14T06:01:59;1.93;;;1.10;;
20609;SDS011;10463;52.378;9.688;2024-02-14T06:04:47;1.67;;;1.00;;
20609;SDS011;10463;52.378;9.688;2024-02-14T06:07:31;1.73;;;1.10;;
20609;SDS011;10463;52.378;9.688;2024-02-14T06:10:16;1.67;;;0.93;;
20609;SDS011;10463;52.378;9.688;2024-02-14T06:13:01;2.33;;;1.07;;
20609;SDS011;10463;52.378;9.688;2024-02-14T06:15:47;1.90;;;1.10;;
20609;SDS011;10463;52.378;9.688;2024-02-14T06:18:32;2.30;;;1.37;;
20609;SDS011;10463;52.378;9.688;2024-02-14T06:21:16;2.00;;;1.30;;
20609;SDS011;10463;52.378;9.688;2024-02-14T06:24:01;2.37;;;1.40;;
20609;SDS011;10463;52.378;9.688;2024-02-14T06:26:47;1.93;;;1.30;;
20609;SDS011;10463;52.378;9.688;2024-02-14T06:29:32;2.20;;;1.30;;
20609;SDS011;10463;52.378;9.688;2024-02-14T06:32:18;1.70;;;1.00;;
20609;SDS011;10463;52.378;9.688;2024-02-14T06:35:03;3.40;;;1.50;;
20609;SDS011;10463;52.378;9.688;2024-02-14T06:37:48;1.73;;;1.37;;
20609;SDS011;10463;52.378;9.688;2024-02-14T06:40:33;2.00;;;1.50;;
20609;SDS011;10463;52.378;9.688;2024-02-14T06:43:17;2.37;;;1.70;;
20609;SDS011;10463;52.378;9.688;2024-02-14T06:46:03;2.63;;;1.50;;
20609;SDS011;10463;52.378;9.688;2024-02-14T06:48:49;1.60;;;1.07;;
20609;SDS011;10463;52.378;9.688;2024-02-14T06:51:33;2.33;;;1.43;;
20609;SDS011;10463;52.378;9.688;2024-02-14T06:54:18;2.13;;;1.30;;
20609;SDS011;10463;52.378;9.688;2024-02-14T06:57:04;2.50;;;1.50;;
20609;SDS011;10463;52.378;9.688;2024-02-14T06:59:49;1.77;;;1.33;;
20609;SDS011;10463;52.378;9.688;2024-02-14T07:02:33;2.20;;;1.37;;
20609;SDS011;10463;52.378;9.688;2024-02-14T07:05:19;2.10;;;1.40;;
20609;SDS011;10463;52.378;9.688;2024-02-14T07:08:04;2.70;;;1.60;;
20609;SDS011;10463;52.378;9.688;2024-02-14T07:10:49;2.43;;;1.60;;
20609;SDS011;10463;52.378;9.688;2024-02-14T07:13:34;2.00;;;1.63;;
20609;SDS011;10463;52.378;9.688;2024-02-14T07:16:18;2.87;;;1.93;;
20609;SDS011;10463;52.378;9.688;2024-02-14T07:19:03;2.87;;;2.17;;
20609;SDS011;10463;52.378;9.688;2024-02-14T07:21:49;3.80;;;3.17;;
20609;SDS011;10463;52.378;9.688;2024-02-14T07:24:35;5.40;;;3.90;;
20609;SDS011;10463;52.378;9.688;2024-02-14T07:27:21;6.33;;;5.47;;
20609;SDS011;10463;52.378;9.688;2024-02-14T07:30:09;8.90;;;6.70;;
20609;SDS011;10463;52.378;9.688;2024-02-14T07:33:00;8.53;;;6.80;;
20609;SDS011;10463;52.378;9.688;2024-02-14T07:35:46;10.00;;;7.37;;
20609;SDS011;10463;52.378;9.688;2024-02-14T07:38:33;9.13;;;7.10;;
20609;SDS011;10463;52.378;9.688;2024-02-14T07:41:17;9.43;;;8.40;;
20609;SDS011;10463;52.378;9.688;2024-02-14T07:44:01;10.80;;;9.07;;
20609;SDS011;10463;52.378;9.688;2024-02-14T07:46:46;12.60;;;8.97;;
20609;SDS011;10463;52.378;9.688;2024-02-14T07:49:30;11.80;;;9.67;;
20609;SDS011;10463;52.378;9.688;2024-02-14T07:52:15;12.13;;;8.77;;
20609;SDS011;10463;52.378;9.688;2024-02-14T07:55:01;11.63;;;9.73;;
20609;SDS011;10463;52.378;9.688;2024-02-14T07:57:46;11.67;;;9.53;;
20609;SDS011;10463;52.378;9.688;2024-02-14T08:00:30;14.83;;;10.70;;
20609;SDS011;10463;52.378;9.688;2024-02-14T08:03:15;14.40;;;11.77;;
20609;SDS011;10463;52.378;9.688;2024-02-14T08:06:00;12.90;;;11.50;;
20609;SDS011;10463;52.378;9.688;2024-02-14T08:08:44;13.60;;;12.03;;
20609;SDS011;10463;52.378;9.688;2024-02-14T08:11:30;15.30;;;12.20;;
20609;SDS011;10463;52.378;9.688;2024-02-14T08:14:15;16.50;;;12.50;;
20609;SDS011;10463;52.378;9.688;2024-02-14T08:16:59;17.20;;;12.93;;
20609;SDS011;10463;52.378;9.688;2024-02-14T08:19:44;28.53;;;12.90;;
20609;SDS011;10463;52.378;9.688;2024-02-14T08:22:28;19.83;;;12.40;;
20609;SDS011;10463;52.378;9.688;2024-02-14T08:25:13;16.40;;;11.97;;
20609;SDS011;10463;52.378;9.688;2024-02-14T08:27:59;19.30;;;11.93;;
20609;SDS011;10463;52.378;9.688;2024-02-14T08:30:44;15.40;;;12.17;;
20609;SDS011;10463;52.378;9.688;2024-02-14T08:33:29;15.87;;;12.10;;
20609;SDS011;10463;52.378;9.688;2024-02-14T08:36:13;13.10;;;11.17;;
20609;SDS011;10463;52.378;9.688;2024-02-14T08:38:58;16.50;;;11.50;;
20609;SDS011;10463;52.378;9.688;2024-02-14T08:41:43;15.70;;;11.03;;
20609;SDS011;10463;52.378;9.688;2024-02-14T08:44:32;15.00;;;11.73;;
20609;SDS011;10463;52.378;9.688;2024-02-14T08:47:16;11.97;;;10.17;;
20609;SDS011;10463;52.378;9.688;2024-02-14T08:50:01;14.27;;;11.73;;
20609;SDS011;10463;52.378;9.688;2024-02-14T08:52:47;11.80;;;9.90;;
20609;SDS011;10463;52.378;9.688;2024-02-14T08:55:31;13.63;;;9.77;;
20609;SDS011;10463;52.378;9.688;2024-02-14T08:58:17;12.07;;;8.53;;
20609;SDS011;10463;52.378;9.688;2024-02-14T09:01:03;14.33;;;10.37;;
20609;SDS011;10463;52.378;9.688;2024-02-14T09:03:48;11.00;;;9.47;;
20609;SDS011;10463;52.378;9.688;2024-02-14T09:06:33;13.70;;;9.53;;
20609;SDS011;10463;52.378;9.688;2024-02-14T09:09:17;10.80;;;9.50;;
20609;SDS011;10463;52.378;9.688;2024-02-14T09:12:03;10.77;;;8.60;;
20609;SDS011;10463;52.378;9.688;2024-02-14T09:14:48;10.70;;;8.27;;
20609;SDS011;10463;52.378;9.688;2024-02-14T09:17:34;11.57;;;8.40;;
20609;SDS011;10463;52.378;9.688;2024-02-14T09:20:19;11.33;;;8.40;;
20609;SDS011;10463;52.378;9.688;2024-02-14T09:23:04;11.20;;;8.63;;
20609;SDS011;10463;52.378;9.688;2024-02-14T09:25:48;9.33;;;8.30;;
20609;SDS011;10463;52.378;9.688;2024-02-14T09:28:33;11.80;;;8.90;;
20609;SDS011;10463;52.378;9.688;2024-02-14T09:31:19;10.33;;;7.93;;
20609;SDS011;10463;52.378;9.688;2024-02-14T09:34:05;8.63;;;7.00;;
20609;SDS011;10463;52.378;9.688;2024-02-14T09:36:49;10.23;;;7.80;;
20609;SDS011;10463;52.378;9.688;2024-02-14T09:39:34;7.50;;;6.67;;
20609;SDS011;10463;52.378;9.688;2024-02-14T09:42:23;7.53;;;6.70;;
20609;SDS011;10463;52.378;9.688;2024-02-14T09:45:12;8.80;;;7.50;;
20609;SDS011;10463;52.378;9.688;2024-02-14T09:47:58;8.60;;;6.87;;
20609;SDS011;10463;52.378;9.688;2024-02-14T09:50:44;6.83;;;6.13;;
20609;SDS011;10463;52.378;9.688;2024-02-14T09:53:29;7.23;;;6.20;;
20609;SDS011;10463;52.378;9.688;2024-02-14T09:56:16;9.10;;;7.17;;
20609;SDS011;10463;52.378;9.688;2024-02-14T09:59:05;7.53;;;6.73;;
20609;SDS011;10463;52.378;9.688;2024-02-14T10:01:51;7.80;;;6.43;;
20609;SDS011;10463;52.378;9.688;2024-02-14T10:08:56;7.23;;;5.90;;
20609;SDS011;10463;52.378;9.688;2024-02-14T10:11:41;7.40;;;6.07;;
20609;SDS011;10463;52.378;9.688;2024-02-14T10:14:26;7.90;;;6.00;;
20609;SDS011;10463;52.378;9.688;2024-02-14T10:17:17;6.40;;;5.20;;
20609;SDS011;10463;52.378;9.688;2024-02-14T10:20:02;7.03;;;5.30;;
20609;SDS011;10463;52.378;9.688;2024-02-14T10:22:51;6.40;;;4.93;;
20609;SDS011;10463;52.378;9.688;2024-02-14T10:25:37;6.00;;;4.83;;
20609;SDS011;10463;52.378;9.688;2024-02-14T10:28:22;6.43;;;5.27;;
20609;SDS011;10463;52.378;9.688;2024-02-14T10:31:07;7.27;;;5.73;;
20609;SDS011;10463;52.378;9.688;2024-02-14T10:33:54;6.33;;;5.67;;
20609;SDS011;10463;52.378;9.688;2024-02-14T10:36:40;6.23;;;5.50;;
20609;SDS011;10463;52.378;9.688;2024-02-14T10:39:27;5.40;;;4.63;;
20609;SDS011;10463;52.378;9.688;2024-02-14T10:42:16;7.33;;;5.03;;
20609;SDS011;10463;52.378;9.688;2024-02-14T10:45:01;6.70;;;5.07;;
20609;SDS011;10463;52.378;9.688;2024-02-14T10:47:47;6.13;;;4.60;;
20609;SDS011;10463;52.378;9.688;2024-02-14T10:50:35;4.87;;;3.93;;
20609;SDS011;10463;52.378;9.688;2024-02-14T10:53:23;5.77;;;4.77;;
20609;SDS011;10463;52.378;9.688;2024-02-14T10:56:09;4.67;;;4.17;;
20609;SDS011;10463;52.378;9.688;2024-02-14T10:58:56;4.90;;;4.03;;
20609;SDS011;10463;52.378;9.688;2024-02-14T11:01:44;5.03;;;3.80;;
20609;SDS011;10463;52.378;9.688;2024-02-14T11:04:30;4.67;;;4.07;;
20609;SDS011;10463;52.378;9.688;2024-02-14T11:07:16;4.90;;;3.83;;
20609;SDS011;10463;52.378;9.688;2024-02-14T11:10:04;5.03;;;3.90;;
20609;SDS011;10463;52.378;9.688;2024-02-14T11:12:50;4.10;;;3.40;;
20609;SDS011;10463;52.378;9.688;2024-02-14T11:15:39;5.73;;;4.33;;
20609;SDS011;10463;52.378;9.688;2024-02-14T11:18:25;4.90;;;3.77;;
20609;SDS011;10463;52.378;9.688;2024-02-14T11:21:16;4.37;;;3.23;;
20609;SDS011;10463;52.378;9.688;2024-02-14T11:24:04;6.37;;;4.27;;
20609;SDS011;10463;52.378;9.688;2024-02-14T11:26:51;4.67;;;3.90;;
20609;SDS011;10463;52.378;9.688;2024-02-14T11:29:38;4.47;;;3.70;;
20609;SDS011;10463;52.378;9.688;2024-02-14T11:32:28;5.77;;;3.80;;
20609;SDS011;10463;52.378;9.688;2024-02-14T11:35:13;4.83;;;3.30;;
20609;SDS011;10463;52.378;9.688;2024-02-14T11:37:58;5.43;;;3.80;;
20609;SDS011;10463;52.378;9.688;2024-02-14T11:40:45;5.00;;;3.60;;
20609;SDS011;10463;52.378;9.688;2024-02-14T11:43:30;4.80;;;4.00;;
20609;SDS011;10463;52.378;9.688;2024-02-14T11:46:15;5.20;;;3.80;;
20609;SDS011;10463;52.378;9.688;2024-02-14T11:49:02;5.27;;;4.03;;
20609;SDS011;10463;52.378;9.688;2024-02-14T11:51:48;6.40;;;4.53;;
20609;SDS011;10463;52.378;9.688;2024-02-14T11:54:32;5.60;;;4.67;;
20609;SDS011;10463;52.378;9.688;2024-02-14T11:57:17;5.50;;;4.40;;
20609;SDS011;10463;52.378;9.688;2024-02-14T12:00:03;6.10;;;4.80;;
20609;SDS011;10463;52.378;9.688;2024-02-14T12:02:53;6.13;;;4.93;;
20609;SDS011;10463;52.378;9.688;2024-02-14T12:05:40;8.00;;;5.40;;
20609;SDS011;10463;52.378;9.688;2024-02-14T12:08:26;9.53;;;6.50;;
20609;SDS011;10463;52.378;9.688;2024-02-14T12:11:11;9.40;;;5.97;;
20609;SDS011;10463;52.378;9.688;2024-02-14T12:13:56;8.80;;;5.50;;
20609;SDS011;10463;52.378;9.688;2024-02-14T12:16:41;6.43;;;5.77;;
20609;SDS011;10463;52.378;9.688;2024-02-14T12:19:26;7.67;;;5.70;;
20609;SDS011;10463;52.378;9.688;2024-02-14T12:22:12;7.30;;;5.57;;
20609;SDS011;10463;52.378;9.688;2024-02-14T12:25:01;6.27;;;5.10;;
20609;SDS011;10463;52.378;9.688;2024-02-14T12:27:50;7.67;;;5.40;;
20609;SDS011;10463;52.378;9.688;2024-02-14T12:30:45;8.27;;;6.30;;
20609;SDS011;10463;52.378;9.688;2024-02-14T12:33:32;6.20;;;5.23;;
20609;SDS011;10463;52.378;9.688;2024-02-14T12:36:19;7.00;;;5.33;;
20609;SDS011;10463;52.378;9.688;2024-02-14T12:39:04;8.50;;;6.37;;
20609;SDS011;10463;52.378;9.688;2024-02-14T12:41:50;7.13;;;5.73;;
20609;SDS011;10463;52.378;9.688;2024-02-14T12:44:35;8.00;;;5.80;;
20609;SDS011;10463;52.378;9.688;2024-02-14T12:47:22;6.53;;;5.13;;
20609;SDS011;10463;52.378;9.688;2024-02-14T12:50:08;6.70;;;5.20;;
20609;SDS011;10463;52.378;9.688;2024-02-14T12:52:53;5.40;;;4.70;;
20609;SDS011;10463;52.378;9.688;2024-02-14T12:55:39;7.10;;;5.33;;
20609;SDS011;10463;52.378;9.688;2024-02-14T12:58:24;7.50;;;5.30;;
20609;SDS011;10463;52.378;9.688;2024-02-14T13:01:08;6.93;;;5.93;;
20609;SDS011;10463;52.378;9.688;2024-02-14T13:03:54;7.63;;;5.60;;
20609;SDS011;10463;52.378;9.688;2024-02-14T13:06:39;6.50;;;5.23;;
20609;SDS011;10463;52.378;9.688;2024-02-14T13:09:24;6.60;;;5.13;;
20609;SDS011;10463;52.378;9.688;2024-02-14T13:12:10;7.10;;;5.23;;
20609;SDS011;10463;52.378;9.688;2024-02-14T13:14:55;7.70;;;5.30;;
20609;SDS011;10463;52.378;9.688;2024-02-14T13:17:39;6.70;;;5.30;;
20609;SDS011;10463;52.378;9.688;2024-02-14T13:20:24;7.23;;;5.10;;
20609;SDS011;10463;52.378;9.688;2024-02-14T13:23:08;8.20;;;6.20;;
20609;SDS011;10463;52.378;9.688;2024-02-14T13:25:53;7.00;;;5.60;;
20609;SDS011;10463;52.378;9.688;2024-02-14T13:28:39;8.43;;;5.60;;
20609;SDS011;10463;52.378;9.688;2024-02-14T13:31:24;7.50;;;6.17;;
20609;SDS011;10463;52.378;9.688;2024-02-14T13:34:09;6.20;;;4.93;;
20609;SDS011;10463;52.378;9.688;2024-02-14T13:36:55;7.17;;;4.90;;
20609;SDS011;10463;52.378;9.688;2024-02-14T13:39:41;7.63;;;5.47;;
20609;SDS011;10463;52.378;9.688;2024-02-14T13:42:25;6.73;;;5.10;;
20609;SDS011;10463;52.378;9.688;2024-02-14T13:45:11;6.30;;;5.27;;
20609;SDS011;10463;52.378;9.688;2024-02-14T13:48:02;6.67;;;5.23;;
20609;SDS011;10463;52.378;9.688;2024-02-14T13:50:48;5.60;;;4.63;;
20609;SDS011;10463;52.378;9.688;2024-02-14T13:53:33;6.63;;;4.60;;
20609;SDS011;10463;52.378;9.688;2024-02-14T13:56:18;5.40;;;4.43;;
20609;SDS011;10463;52.378;9.688;2024-02-14T13:59:05;6.63;;;4.93;;
20609;SDS011;10463;52.378;9.688;2024-02-14T14:01:51;7.50;;;5.30;;
20609;SDS011;10463;52.378;9.688;2024-02-14T14:04:35;5.20;;;4.40;;
20609;SDS011;10463;52.378;9.688;2024-02-14T14:07:20;4.80;;;4.23;;
20609;SDS011;10463;52.378;9.688;2024-02-14T14:10:08;6.07;;;5.07;;
20609;SDS011;10463;52.378;9.688;2024-02-14T14:12:53;5.37;;;4.40;;
20609;SDS011;10463;52.378;9.688;2024-02-14T14:15:37;5.87;;;3.70;;
20609;SDS011;10463;52.378;9.688;2024-02-14T14:18:23;6.87;;;4.60;;
20609;SDS011;10463;52.378;9.688;2024-02-14T14:21:08;5.17;;;3.90;;
20609;SDS011;10463;52.378;9.688;2024-02-14T14:23:53;5.60;;;4.53;;
20609;SDS011;10463;52.378;9.688;2024-02-14T14:26:38;5.03;;;4.10;;
20609;SDS011;10463;52.378;9.688;2024-02-14T14:29:22;6.40;;;4.63;;
20609;SDS011;10463;52.378;9.688;2024-02-14T14:32:07;4.27;;;3.57;;
20609;SDS011;10463;52.378;9.688;2024-02-14T14:34:53;5.53;;;4.30;;
20609;SDS011;10463;52.378;9.688;2024-02-14T14:37:39;6.73;;;4.50;;
20609;SDS011;10463;52.378;9.688;2024-02-14T14:40:23;6.60;;;4.70;;
20609;SDS011;10463;52.378;9.688;2024-02-14T14:43:08;8.07;;;4.53;;
20609;SDS011;10463;52.378;9.688;2024-02-14T14:45:54;8.60;;;5.23;;
20609;SDS011;10463;52.378;9.688;2024-02-14T14:48:41;7.80;;;5.47;;
20609;SDS011;10463;52.378;9.688;2024-02-14T14:51:26;7.20;;;5.50;;
20609;SDS011;10463;52.378;9.688;2024-02-14T14:54:11;7.17;;;5.50;;
20609;SDS011;10463;52.378;9.688;2024-02-14T14:56:56;9.10;;;6.30;;
20609;SDS011;10463;52.378;9.688;2024-02-14T14:59:41;10.20;;;5.40;;
20609;SDS011;10463;52.378;9.688;2024-02-14T15:02:27;12.93;;;7.13;;
20609;SDS011;10463;52.378;9.688;2024-02-14T15:05:12;10.20;;;6.60;;
20609;SDS011;10463;52.378;9.688;2024-02-14T15:07:58;14.73;;;7.10;;
20609;SDS011;10463;52.378;9.688;2024-02-14T15:10:42;7.30;;;5.97;;
20609;SDS011;10463;52.378;9.688;2024-02-14T15:13:27;8.17;;;6.73;;
20609;SDS011;10463;52.378;9.688;2024-02-14T15:16:12;7.43;;;6.20;;
20609;SDS011;10463;52.378;9.688;2024-02-14T15:18:57;11.60;;;6.83;;
20609;SDS011;10463;52.378;9.688;2024-02-14T15:21:41;11.13;;;7.07;;
20609;SDS011;10463;52.378;9.688;2024-02-14T15:24:27;8.63;;;6.83;;
20609;SDS011;10463;52.378;9.688;2024-02-14T15:27:13;9.87;;;6.53;;
20609;SDS011;10463;52.378;9.688;2024-02-14T15:30:06;6.40;;;5.03;;
20609;SDS011;10463;52.378;9.688;2024-02-14T15:33:10;12.30;;;6.47;;
20609;SDS011;10463;52.378;9.688;2024-02-14T15:36:07;8.73;;;5.70;;
20609;SDS011;10463;52.378;9.688;2024-02-14T15:38:52;9.47;;;5.53;;
20609;SDS011;10463;52.378;9.688;2024-02-14T15:41:37;14.13;;;7.07;;
20609;SDS011;10463;52.378;9.688;2024-02-14T15:44:22;9.70;;;6.67;;
20609;SDS011;10463;52.378;9.688;2024-02-14T15:47:07;9.20;;;6.20;;
20609;SDS011;10463;52.378;9.688;2024-02-14T15:49:51;10.13;;;6.27;;
20609;SDS011;10463;52.378;9.688;2024-02-14T15:52:36;7.80;;;5.73;;
20609;SDS011;10463;52.378;9.688;2024-02-14T15:55:21;9.13;;;6.20;;
20609;SDS011;10463;52.378;9.688;2024-02-14T15:58:07;8.67;;;5.90;;
20609;SDS011;10463;52.378;9.688;2024-02-14T16:00:52;8.13;;;5.50;;
20609;SDS011;10463;52.378;9.688;2024-02-14T16:03:39;16.60;;;7.10;;
20609;SDS011;10463;52.378;9.688;2024-02-14T16:06:24;6.63;;;5.90;;
20609;SDS011;10463;52.378;9.688;2024-02-14T16:09:08;8.00;;;5.87;;
20609;SDS011;10463;52.378;9.688;2024-02-14T16:11:53;8.73;;;6.20;;
20609;SDS011;10463;52.378;9.688;2024-02-14T16:14:40;10.27;;;6.20;;
20609;SDS011;10463;52.378;9.688;2024-02-14T16:17:28;6.97;;;5.67;;
20609;SDS011;10463;52.378;9.688;2024-02-14T16:20:13;9.33;;;5.80;;
20609;SDS011;10463;52.378;9.688;2024-02-14T16:22:58;7.90;;;6.53;;
20609;SDS011;10463;52.378;9.688;2024-02-14T16:25:44;8.97;;;6.10;;
20609;SDS011;10463;52.378;9.688;2024-02-14T16:28:31;7.40;;;6.50;;
20609;SDS011;10463;52.378;9.688;2024-02-14T16:31:17;8.67;;;6.20;;
20609;SDS011;10463;52.378;9.688;2024-02-14T16:34:02;7.10;;;6.27;;
20609;SDS011;10463;52.378;9.688;2024-02-14T16:36:47;6.50;;;5.83;;
20609;SDS011;10463;52.378;9.688;2024-02-14T16:39:31;10.27;;;5.83;;